Christos Xxiv — HP3603 — position and weather

sailwx.info

Track history (hours):
 
Tides and Currents Weather Stations Pressure Air Temp Water Temp Dewpoint Dewpoint Depression Visibility Wind Speed Wind Dir Waves Ship Positions

Christos Xxiv

Last reported at 2017-Dec-11 07:40 UTC. Time now 2017-Dec-11 11:41 UTC.
Position N 34°40' E 033°04'.

Length 44 m; draft 4 m.

Type: Tug. MMSI: 370901000.

Date/timePositionNaut miles runAvg speedWind from/ knotsBaromVisibWave heightAir tempDewpointWater temp
2017-Dec-11 07:40N 34°40' E 033°04'335 7.4
2017-Dec-09 10:20N 36°50' E 026°43'15 9.7
2017-Dec-09 08:50N 37°02' E 026°32'4 9.6
2017-Dec-09 08:28N 37°04' E 026°29'4 9.6
2017-Dec-09 08:01N 37°08' E 026°25'5 9.4
2017-Dec-09 07:31N 37°11' E 026°21'5 9.6
2017-Dec-09 07:01N 37°14' E 026°17'5 9.4
2017-Dec-09 06:31N 37°17' E 026°13'5 9.6
2017-Dec-09 06:01N 37°20' E 026°08'5 9.1
2017-Dec-09 05:30N 37°23' E 026°03'5 9.2
2017-Dec-09 05:01N 37°26' E 025°59'5 9.1
2017-Dec-09 04:31N 37°30' E 025°56'5 9.2
2017-Dec-09 04:00N 37°34' E 025°53'66 1.4
2017-Dec-07 06:21N 37°53' E 024°33'2 5.1
2017-Dec-07 06:00N 37°53' E 024°31'3 5.1
2017-Dec-07 05:30N 37°51' E 024°29'10 5.6
2017-Dec-07 03:41N 37°45' E 024°19'1 5.4
2017-Dec-07 03:30N 37°44' E 024°18'4 5.4
2017-Dec-07 02:47N 37°41' E 024°15'2 5.7
2017-Dec-07 02:29N 37°40' E 024°13'4 5.1
2017-Dec-07 01:45N 37°38' E 024°09'1 5.0
2017-Dec-07 01:30N 37°37' E 024°08'3 5.1
2017-Dec-07 01:00N 37°36' E 024°05'3 5.6
2017-Dec-07 00:30N 37°35' E 024°02'11 5.4
2017-Dec-06 22:28N 37°37' E 023°48'3 5.9
2017-Dec-06 22:00N 37°39' E 023°45'3 5.7
2017-Dec-06 21:30N 37°40' E 023°42'3 5.7
2017-Dec-06 21:00N 37°43' E 023°40'  
2017-Dec-04 10:24N 37°57' E 023°33'0 0.0
2017-Dec-04 09:58N 37°57' E 023°33'0 0.0
2017-Dec-04 09:27N 37°57' E 023°33'0 0.0
2017-Dec-04 08:59N 37°57' E 023°33'0 0.0
2017-Dec-04 08:29N 37°57' E 023°33'0 0.0
2017-Dec-04 08:00N 37°57' E 023°33'0 0.0
2017-Dec-04 07:30N 37°57' E 023°33'0 0.0
2017-Dec-04 06:57N 37°57' E 023°33'0 0.0
2017-Dec-04 06:23N 37°57' E 023°33'0 0.0
2017-Dec-04 05:50N 37°57' E 023°33'0 0.0
2017-Dec-04 05:29N 37°57' E 023°33'0 0.0
2017-Dec-04 05:00N 37°57' E 023°33'0 0.0
2017-Dec-04 04:23N 37°57' E 023°33'0 0.0
2017-Dec-04 03:59N 37°57' E 023°33'0 0.0
2017-Dec-04 03:29N 37°57' E 023°33'0 0.0
2017-Dec-04 02:58N 37°57' E 023°33'0 0.0
2017-Dec-04 02:30N 37°57' E 023°33'0 0.0
2017-Dec-04 01:59N 37°57' E 023°33'0 0.0
2017-Dec-04 01:28N 37°57' E 023°33'0 0.0
2017-Dec-04 00:59N 37°57' E 023°33'0 0.0
2017-Dec-04 00:30N 37°57' E 023°33'0 0.0
2017-Dec-03 23:59N 37°57' E 023°33'0 0.0
2017-Dec-03 23:30N 37°57' E 023°33'0 0.0
2017-Dec-03 22:59N 37°57' E 023°33'0 0.0
2017-Dec-03 22:25N 37°57' E 023°33'0 0.0
2017-Dec-03 21:58N 37°57' E 023°33'0 0.0
2017-Dec-03 21:27N 37°57' E 023°33'0 0.0
2017-Dec-03 21:00N 37°57' E 023°33'0 0.0
2017-Dec-03 20:30N 37°57' E 023°33'0 0.0
2017-Dec-03 20:00N 37°57' E 023°33'0 0.0
2017-Dec-03 19:29N 37°57' E 023°33'0 0.0
2017-Dec-03 19:00N 37°57' E 023°33'0 0.0
2017-Dec-03 18:28N 37°57' E 023°33'0 0.0
2017-Dec-03 17:59N 37°57' E 023°33'0 0.0
2017-Dec-03 17:29N 37°57' E 023°33'0 0.0
2017-Dec-03 16:57N 37°57' E 023°33'0 0.0
2017-Dec-03 16:29N 37°57' E 023°33'0 0.0
2017-Dec-03 15:58N 37°57' E 023°33'0 0.0
2017-Dec-03 15:29N 37°57' E 023°33'0 0.0
2017-Dec-03 15:00N 37°57' E 023°33'0 0.0
2017-Dec-03 14:29N 37°57' E 023°33'0 0.0
2017-Dec-03 13:59N 37°57' E 023°33'0 0.0
2017-Dec-03 13:28N 37°57' E 023°33'0 0.0
2017-Dec-03 12:55N 37°57' E 023°33'0 0.0
2017-Dec-03 12:24N 37°57' E 023°33'0 0.0
2017-Dec-03 11:53N 37°57' E 023°33'0 0.0
2017-Dec-03 11:30N 37°57' E 023°33'0 0.0
2017-Dec-03 10:59N 37°57' E 023°33'0 0.0
2017-Dec-03 10:27N 37°57' E 023°33'0 0.0
2017-Dec-03 09:59N 37°57' E 023°33'0 0.0
2017-Dec-03 09:30N 37°57' E 023°33'0 0.0
2017-Dec-03 08:57N 37°57' E 023°33'0 0.0
2017-Dec-03 08:25N 37°57' E 023°33'0 0.0
2017-Dec-03 07:58N 37°57' E 023°33'0 0.0
2017-Dec-03 07:29N 37°57' E 023°33'0 0.0
2017-Dec-03 06:56N 37°57' E 023°33'0 0.0
2017-Dec-03 06:28N 37°57' E 023°33'0 0.0
2017-Dec-03 06:00N 37°57' E 023°33'0 0.0
2017-Dec-03 05:29N 37°57' E 023°33'0 0.0
2017-Dec-03 04:59N 37°57' E 023°33'0 0.0
2017-Dec-03 04:29N 37°57' E 023°33'0 0.0
2017-Dec-03 03:53N 37°57' E 023°33'0 0.0
2017-Dec-03 03:30N 37°57' E 023°33'0 0.0
2017-Dec-03 02:58N 37°57' E 023°33'0 0.0
2017-Dec-03 02:30N 37°57' E 023°33'0 0.0
2017-Dec-03 02:00N 37°57' E 023°33'0 0.0
2017-Dec-03 01:30N 37°57' E 023°33'0 0.0
2017-Dec-03 00:59N 37°57' E 023°33'0 0.0
2017-Dec-03 00:29N 37°57' E 023°33'0 0.0
2017-Dec-03 00:00N 37°57' E 023°33'0 0.0
2017-Dec-02 23:28N 37°57' E 023°33'0 0.0
2017-Dec-02 23:00N 37°57' E 023°33'0 0.0
2017-Dec-02 22:30N 37°57' E 023°33'0 0.0
2017-Dec-02 22:00N 37°57' E 023°33'0 0.0
2017-Dec-02 21:30N 37°57' E 023°33'0 0.0
2017-Dec-02 21:00N 37°57' E 023°33'0 0.0
2017-Dec-02 20:30N 37°57' E 023°33'0 0.0
2017-Dec-02 20:00N 37°57' E 023°33'0 0.0
2017-Dec-02 19:27N 37°57' E 023°33'0 0.0
2017-Dec-02 18:58N 37°57' E 023°33'0 0.0
2017-Dec-02 18:28N 37°57' E 023°33'0 0.0
2017-Dec-02 17:58N 37°57' E 023°33'0 0.0
2017-Dec-02 17:29N 37°57' E 023°33'0 0.0
2017-Dec-02 16:59N 37°57' E 023°33'0 0.0
2017-Dec-02 16:25N 37°57' E 023°33'0 0.0
2017-Dec-02 15:59N 37°57' E 023°33'0 0.0
2017-Dec-02 15:27N 37°57' E 023°33'0 0.0
2017-Dec-02 14:59N 37°57' E 023°33'0 0.0
2017-Dec-02 14:29N 37°57' E 023°33'0 0.0
2017-Dec-02 14:00N 37°57' E 023°33'0 0.0
2017-Dec-02 13:27N 37°57' E 023°33'0 0.0
2017-Dec-02 13:00N 37°57' E 023°33'0 0.0
2017-Dec-02 12:23N 37°57' E 023°33'0 0.0
2017-Dec-02 11:58N 37°57' E 023°33'0 0.0
2017-Dec-02 11:29N 37°57' E 023°33'0 0.0
2017-Dec-02 10:56N 37°57' E 023°33'0 0.0
2017-Dec-02 10:30N 37°57' E 023°33'0 0.0
2017-Dec-02 09:59N 37°57' E 023°33'0 0.0
2017-Dec-02 09:30N 37°57' E 023°33'0 0.0
2017-Dec-02 09:00N 37°57' E 023°33'0 0.0
2017-Dec-02 08:28N 37°57' E 023°33'0 0.0
2017-Dec-02 08:00N 37°57' E 023°33'0 0.0
2017-Dec-02 07:29N 37°57' E 023°33'0 0.0
2017-Dec-02 06:58N 37°57' E 023°33'0 0.0
2017-Dec-02 06:24N 37°57' E 023°33'0 0.0
2017-Dec-02 05:58N 37°57' E 023°33'0 0.0
2017-Dec-02 05:28N 37°57' E 023°33'0 0.0
2017-Dec-02 04:59N 37°57' E 023°33'0 0.0
2017-Dec-02 04:25N 37°57' E 023°33'0 0.0
2017-Dec-02 04:00N 37°57' E 023°33'0 0.0
2017-Dec-02 03:27N 37°57' E 023°33'0 0.0
2017-Dec-02 03:00N 37°57' E 023°33'0 0.0
2017-Dec-02 02:29N 37°57' E 023°33'0 0.0
2017-Dec-02 02:00N 37°57' E 023°33'0 0.0
2017-Dec-02 01:28N 37°57' E 023°33'0 0.0
2017-Dec-02 00:57N 37°57' E 023°33'0 0.0
2017-Dec-02 00:28N 37°57' E 023°33'0 0.0
2017-Dec-01 23:53N 37°57' E 023°33'0 0.0
2017-Dec-01 23:29N 37°57' E 023°33'0 0.0
2017-Dec-01 22:58N 37°57' E 023°33'0 0.0
2017-Dec-01 22:29N 37°57' E 023°33'0 0.0
2017-Dec-01 21:58N 37°57' E 023°33'0 0.0
2017-Dec-01 21:29N 37°57' E 023°33'0 0.0
2017-Dec-01 21:00N 37°57' E 023°33'0 0.0
2017-Dec-01 20:28N 37°57' E 023°33'0 0.0
2017-Dec-01 19:58N 37°57' E 023°33'0 0.0
2017-Dec-01 19:26N 37°57' E 023°33'0 0.0
2017-Dec-01 18:58N 37°57' E 023°33'0 0.0
2017-Dec-01 18:26N 37°57' E 023°33'0 0.0
2017-Dec-01 17:57N 37°57' E 023°33'0 0.0
2017-Dec-01 17:30N 37°57' E 023°33'0 0.0
2017-Dec-01 16:55N 37°57' E 023°33'0 0.0
2017-Dec-01 16:28N 37°57' E 023°33'0 0.0
2017-Dec-01 15:58N 37°57' E 023°33'0 0.0
2017-Dec-01 15:26N 37°57' E 023°33'0 0.0
2017-Dec-01 14:59N 37°57' E 023°33'0 0.0
2017-Dec-01 14:28N 37°57' E 023°33'0 0.0
2017-Dec-01 13:57N 37°57' E 023°33'0 0.0
2017-Dec-01 13:26N 37°57' E 023°33'0 0.0
2017-Dec-01 12:54N 37°57' E 023°33'0 0.0
2017-Dec-01 12:28N 37°57' E 023°33'0 0.0
2017-Dec-01 11:59N 37°57' E 023°33'0 0.0
2017-Dec-01 11:24N 37°57' E 023°33'0 0.0
2017-Dec-01 10:54N 37°57' E 023°33'0 0.0
2017-Dec-01 10:30N 37°57' E 023°33'0 0.0
2017-Dec-01 09:59N 37°57' E 023°33'0 0.0
2017-Dec-01 09:27N 37°57' E 023°33'0 0.0
2017-Dec-01 08:59N 37°57' E 023°33'0 0.0
2017-Dec-01 08:30N 37°57' E 023°33'0 0.0
2017-Dec-01 07:50N 37°57' E 023°33'  
Track history (hours):
 
Tides and Currents Weather Stations Pressure Air Temp Water Temp Dewpoint Dewpoint Depression Visibility Wind Speed Wind Dir Waves Ship Positions

Christos Xxiv

Last reported at 2017-Dec-11 07:40 UTC. Time now 2017-Dec-11 11:41 UTC.
Position N 34°40' E 033°04'.

Length 44 m; draft 4 m.

Type: Tug. MMSI: 370901000.

Date/timePositionNaut miles runAvg speedWind from/ knotsBaromVisibWave heightAir tempDewpointWater temp
2017-Dec-11 07:40N 34°40' E 033°04'335 7.4
2017-Dec-09 10:20N 36°50' E 026°43'15 9.7
2017-Dec-09 08:50N 37°02' E 026°32'4 9.6
2017-Dec-09 08:28N 37°04' E 026°29'4 9.6
2017-Dec-09 08:01N 37°08' E 026°25'5 9.4
2017-Dec-09 07:31N 37°11' E 026°21'5 9.6
2017-Dec-09 07:01N 37°14' E 026°17'5 9.4
2017-Dec-09 06:31N 37°17' E 026°13'5 9.6
2017-Dec-09 06:01N 37°20' E 026°08'5 9.1
2017-Dec-09 05:30N 37°23' E 026°03'5 9.2
2017-Dec-09 05:01N 37°26' E 025°59'5 9.1
2017-Dec-09 04:31N 37°30' E 025°56'5 9.2
2017-Dec-09 04:00N 37°34' E 025°53'66 1.4
2017-Dec-07 06:21N 37°53' E 024°33'2 5.1
2017-Dec-07 06:00N 37°53' E 024°31'3 5.1
2017-Dec-07 05:30N 37°51' E 024°29'10 5.6
2017-Dec-07 03:41N 37°45' E 024°19'1 5.4
2017-Dec-07 03:30N 37°44' E 024°18'4 5.4
2017-Dec-07 02:47N 37°41' E 024°15'2 5.7
2017-Dec-07 02:29N 37°40' E 024°13'4 5.1
2017-Dec-07 01:45N 37°38' E 024°09'1 5.0
2017-Dec-07 01:30N 37°37' E 024°08'3 5.1
2017-Dec-07 01:00N 37°36' E 024°05'3 5.6
2017-Dec-07 00:30N 37°35' E 024°02'11 5.4
2017-Dec-06 22:28N 37°37' E 023°48'3 5.9
2017-Dec-06 22:00N 37°39' E 023°45'3 5.7
2017-Dec-06 21:30N 37°40' E 023°42'3 5.7
2017-Dec-06 21:00N 37°43' E 023°40'  
2017-Dec-04 10:24N 37°57' E 023°33'0 0.0
2017-Dec-04 09:58N 37°57' E 023°33'0 0.0
2017-Dec-04 09:27N 37°57' E 023°33'0 0.0
2017-Dec-04 08:59N 37°57' E 023°33'0 0.0
2017-Dec-04 08:29N 37°57' E 023°33'0 0.0
2017-Dec-04 08:00N 37°57' E 023°33'0 0.0
2017-Dec-04 07:30N 37°57' E 023°33'0 0.0
2017-Dec-04 06:57N 37°57' E 023°33'0 0.0
2017-Dec-04 06:23N 37°57' E 023°33'0 0.0
2017-Dec-04 05:50N 37°57' E 023°33'0 0.0
2017-Dec-04 05:29N 37°57' E 023°33'0 0.0
2017-Dec-04 05:00N 37°57' E 023°33'0 0.0
2017-Dec-04 04:23N 37°57' E 023°33'0 0.0
2017-Dec-04 03:59N 37°57' E 023°33'0 0.0
2017-Dec-04 03:29N 37°57' E 023°33'0 0.0
2017-Dec-04 02:58N 37°57' E 023°33'0 0.0
2017-Dec-04 02:30N 37°57' E 023°33'0 0.0
2017-Dec-04 01:59N 37°57' E 023°33'0 0.0
2017-Dec-04 01:28N 37°57' E 023°33'0 0.0
2017-Dec-04 00:59N 37°57' E 023°33'0 0.0
2017-Dec-04 00:30N 37°57' E 023°33'0 0.0
2017-Dec-03 23:59N 37°57' E 023°33'0 0.0
2017-Dec-03 23:30N 37°57' E 023°33'0 0.0
2017-Dec-03 22:59N 37°57' E 023°33'0 0.0
2017-Dec-03 22:25N 37°57' E 023°33'0 0.0
2017-Dec-03 21:58N 37°57' E 023°33'0 0.0
2017-Dec-03 21:27N 37°57' E 023°33'0 0.0
2017-Dec-03 21:00N 37°57' E 023°33'0 0.0
2017-Dec-03 20:30N 37°57' E 023°33'0 0.0
2017-Dec-03 20:00N 37°57' E 023°33'0 0.0
2017-Dec-03 19:29N 37°57' E 023°33'0 0.0
2017-Dec-03 19:00N 37°57' E 023°33'0 0.0
2017-Dec-03 18:28N 37°57' E 023°33'0 0.0
2017-Dec-03 17:59N 37°57' E 023°33'0 0.0
2017-Dec-03 17:29N 37°57' E 023°33'0 0.0
2017-Dec-03 16:57N 37°57' E 023°33'0 0.0
2017-Dec-03 16:29N 37°57' E 023°33'0 0.0
2017-Dec-03 15:58N 37°57' E 023°33'0 0.0
2017-Dec-03 15:29N 37°57' E 023°33'0 0.0
2017-Dec-03 15:00N 37°57' E 023°33'0 0.0
2017-Dec-03 14:29N 37°57' E 023°33'0 0.0
2017-Dec-03 13:59N 37°57' E 023°33'0 0.0
2017-Dec-03 13:28N 37°57' E 023°33'0 0.0
2017-Dec-03 12:55N 37°57' E 023°33'0 0.0
2017-Dec-03 12:24N 37°57' E 023°33'0 0.0
2017-Dec-03 11:53N 37°57' E 023°33'0 0.0
2017-Dec-03 11:30N 37°57' E 023°33'0 0.0
2017-Dec-03 10:59N 37°57' E 023°33'0 0.0
2017-Dec-03 10:27N 37°57' E 023°33'0 0.0
2017-Dec-03 09:59N 37°57' E 023°33'0 0.0
2017-Dec-03 09:30N 37°57' E 023°33'0 0.0
2017-Dec-03 08:57N 37°57' E 023°33'0 0.0
2017-Dec-03 08:25N 37°57' E 023°33'0 0.0
2017-Dec-03 07:58N 37°57' E 023°33'0 0.0
2017-Dec-03 07:29N 37°57' E 023°33'0 0.0
2017-Dec-03 06:56N 37°57' E 023°33'0 0.0
2017-Dec-03 06:28N 37°57' E 023°33'0 0.0
2017-Dec-03 06:00N 37°57' E 023°33'0 0.0
2017-Dec-03 05:29N 37°57' E 023°33'0 0.0
2017-Dec-03 04:59N 37°57' E 023°33'0 0.0
2017-Dec-03 04:29N 37°57' E 023°33'0 0.0
2017-Dec-03 03:53N 37°57' E 023°33'0 0.0
2017-Dec-03 03:30N 37°57' E 023°33'0 0.0
2017-Dec-03 02:58N 37°57' E 023°33'0 0.0
2017-Dec-03 02:30N 37°57' E 023°33'0 0.0
2017-Dec-03 02:00N 37°57' E 023°33'0 0.0
2017-Dec-03 01:30N 37°57' E 023°33'0 0.0
2017-Dec-03 00:59N 37°57' E 023°33'0 0.0
2017-Dec-03 00:29N 37°57' E 023°33'0 0.0
2017-Dec-03 00:00N 37°57' E 023°33'0 0.0
2017-Dec-02 23:28N 37°57' E 023°33'0 0.0
2017-Dec-02 23:00N 37°57' E 023°33'0 0.0
2017-Dec-02 22:30N 37°57' E 023°33'0 0.0
2017-Dec-02 22:00N 37°57' E 023°33'0 0.0
2017-Dec-02 21:30N 37°57' E 023°33'0 0.0
2017-Dec-02 21:00N 37°57' E 023°33'0 0.0
2017-Dec-02 20:30N 37°57' E 023°33'0 0.0
2017-Dec-02 20:00N 37°57' E 023°33'0 0.0
2017-Dec-02 19:27N 37°57' E 023°33'0 0.0
2017-Dec-02 18:58N 37°57' E 023°33'0 0.0
2017-Dec-02 18:28N 37°57' E 023°33'0 0.0
2017-Dec-02 17:58N 37°57' E 023°33'0 0.0
2017-Dec-02 17:29N 37°57' E 023°33'0 0.0
2017-Dec-02 16:59N 37°57' E 023°33'0 0.0
2017-Dec-02 16:25N 37°57' E 023°33'0 0.0
2017-Dec-02 15:59N 37°57' E 023°33'0 0.0
2017-Dec-02 15:27N 37°57' E 023°33'0 0.0
2017-Dec-02 14:59N 37°57' E 023°33'0 0.0
2017-Dec-02 14:29N 37°57' E 023°33'0 0.0
2017-Dec-02 14:00N 37°57' E 023°33'0 0.0
2017-Dec-02 13:27N 37°57' E 023°33'0 0.0
2017-Dec-02 13:00N 37°57' E 023°33'0 0.0
2017-Dec-02 12:23N 37°57' E 023°33'0 0.0
2017-Dec-02 11:58N 37°57' E 023°33'0 0.0
2017-Dec-02 11:29N 37°57' E 023°33'0 0.0
2017-Dec-02 10:56N 37°57' E 023°33'0 0.0
2017-Dec-02 10:30N 37°57' E 023°33'0 0.0
2017-Dec-02 09:59N 37°57' E 023°33'0 0.0
2017-Dec-02 09:30N 37°57' E 023°33'0 0.0
2017-Dec-02 09:00N 37°57' E 023°33'0 0.0
2017-Dec-02 08:28N 37°57' E 023°33'0 0.0
2017-Dec-02 08:00N 37°57' E 023°33'0 0.0
2017-Dec-02 07:29N 37°57' E 023°33'0 0.0
2017-Dec-02 06:58N 37°57' E 023°33'0 0.0
2017-Dec-02 06:24N 37°57' E 023°33'0 0.0
2017-Dec-02 05:58N 37°57' E 023°33'0 0.0
2017-Dec-02 05:28N 37°57' E 023°33'0 0.0
2017-Dec-02 04:59N 37°57' E 023°33'0 0.0
2017-Dec-02 04:25N 37°57' E 023°33'0 0.0
2017-Dec-02 04:00N 37°57' E 023°33'0 0.0
2017-Dec-02 03:27N 37°57' E 023°33'0 0.0
2017-Dec-02 03:00N 37°57' E 023°33'0 0.0
2017-Dec-02 02:29N 37°57' E 023°33'0 0.0
2017-Dec-02 02:00N 37°57' E 023°33'0 0.0
2017-Dec-02 01:28N 37°57' E 023°33'0 0.0
2017-Dec-02 00:57N 37°57' E 023°33'0 0.0
2017-Dec-02 00:28N 37°57' E 023°33'0 0.0
2017-Dec-01 23:53N 37°57' E 023°33'0 0.0
2017-Dec-01 23:29N 37°57' E 023°33'0 0.0
2017-Dec-01 22:58N 37°57' E 023°33'0 0.0
2017-Dec-01 22:29N 37°57' E 023°33'0 0.0
2017-Dec-01 21:58N 37°57' E 023°33'0 0.0
2017-Dec-01 21:29N 37°57' E 023°33'0 0.0
2017-Dec-01 21:00N 37°57' E 023°33'0 0.0
2017-Dec-01 20:28N 37°57' E 023°33'0 0.0
2017-Dec-01 19:58N 37°57' E 023°33'0 0.0
2017-Dec-01 19:26N 37°57' E 023°33'0 0.0
2017-Dec-01 18:58N 37°57' E 023°33'0 0.0
2017-Dec-01 18:26N 37°57' E 023°33'0 0.0
2017-Dec-01 17:57N 37°57' E 023°33'0 0.0
2017-Dec-01 17:30N 37°57' E 023°33'0 0.0
2017-Dec-01 16:55N 37°57' E 023°33'0 0.0
2017-Dec-01 16:28N 37°57' E 023°33'0 0.0
2017-Dec-01 15:58N 37°57' E 023°33'0 0.0
2017-Dec-01 15:26N 37°57' E 023°33'0 0.0
2017-Dec-01 14:59N 37°57' E 023°33'0 0.0
2017-Dec-01 14:28N 37°57' E 023°33'0 0.0
2017-Dec-01 13:57N 37°57' E 023°33'0 0.0
2017-Dec-01 13:26N 37°57' E 023°33'0 0.0
2017-Dec-01 12:54N 37°57' E 023°33'0 0.0
2017-Dec-01 12:28N 37°57' E 023°33'0 0.0
2017-Dec-01 11:59N 37°57' E 023°33'0 0.0
2017-Dec-01 11:24N 37°57' E 023°33'0 0.0
2017-Dec-01 10:54N 37°57' E 023°33'0 0.0
2017-Dec-01 10:30N 37°57' E 023°33'0 0.0
2017-Dec-01 09:59N 37°57' E 023°33'0 0.0
2017-Dec-01 09:27N 37°57' E 023°33'0 0.0
2017-Dec-01 08:59N 37°57' E 023°33'0 0.0
2017-Dec-01 08:30N 37°57' E 023°33'0 0.0
2017-Dec-01 07:50N 37°57' E 023°33'  

Dump ship's entire track history